createdAt,value
2022-12-08T00:00:15.398Z,0
2022-12-08T00:01:13.890Z,0
2022-12-08T00:02:13.827Z,0
2022-12-08T00:03:13.659Z,0
2022-12-08T00:04:13.811Z,0
2022-12-08T00:05:13.259Z,0
2022-12-08T00:06:13.137Z,0
2022-12-08T00:07:13.084Z,0
2022-12-08T00:08:13.898Z,0
2022-12-08T00:09:13.884Z,0
2022-12-08T00:10:47.839Z,0
2022-12-08T00:11:13.501Z,0
2022-12-08T00:12:13.611Z,0
2022-12-08T00:13:13.608Z,0
2022-12-08T00:14:12.972Z,0
2022-12-08T00:15:12.877Z,0
2022-12-08T00:16:14.089Z,0
2022-12-08T00:17:13.500Z,0
2022-12-08T00:18:13.231Z,0
2022-12-08T00:19:13.357Z,0
2022-12-08T00:20:13.430Z,0
2022-12-08T00:21:13.559Z,0
2022-12-08T00:22:13.911Z,0
2022-12-08T00:23:13.923Z,0
2022-12-08T00:24:13.954Z,0
2022-12-08T00:25:13.972Z,0
2022-12-08T00:26:13.543Z,0
2022-12-08T00:27:13.676Z,0
2022-12-08T00:28:13.095Z,0
2022-12-08T00:29:17.303Z,0
2022-12-08T00:30:13.708Z,0
2022-12-08T00:31:13.381Z,0
2022-12-08T00:32:13.201Z,0
2022-12-08T00:33:12.978Z,0
2022-12-08T00:34:13.387Z,0
2022-12-08T00:35:13.144Z,0
2022-12-08T00:36:13.560Z,0
2022-12-08T00:37:13.426Z,0
2022-12-08T00:38:13.751Z,0
2022-12-08T00:39:13.755Z,0
2022-12-08T00:40:14.020Z,0
2022-12-08T00:41:14.084Z,0
2022-12-08T00:42:14.062Z,0
2022-12-08T00:43:13.237Z,0
2022-12-08T00:44:13.725Z,0
2022-12-08T00:45:14.404Z,0
2022-12-08T00:46:13.836Z,0
2022-12-08T00:47:13.949Z,0
2022-12-08T00:48:13.464Z,0
2022-12-08T00:49:13.647Z,0
2022-12-08T00:50:14.419Z,0
2022-12-08T00:51:13.579Z,0
2022-12-08T00:52:13.617Z,0
2022-12-08T00:53:12.970Z,0
2022-12-08T00:54:13.961Z,0
2022-12-08T00:55:13.685Z,0
2022-12-08T00:56:13.801Z,0
2022-12-08T00:57:13.505Z,0
2022-12-08T00:58:13.531Z,0
2022-12-08T00:59:13.384Z,0
2022-12-08T01:01:16.097Z,0
2022-12-08T01:03:14.400Z,0
2022-12-08T01:04:13.861Z,0
2022-12-08T01:05:14.304Z,0
2022-12-08T01:06:13.153Z,0
2022-12-08T01:07:13.187Z,0
2022-12-08T01:08:13.824Z,0
2022-12-08T01:09:14.058Z,0
2022-12-08T01:10:14.712Z,0
2022-12-08T01:11:14.264Z,0
2022-12-08T01:12:13.908Z,0
2022-12-08T01:13:13.979Z,0
2022-12-08T01:14:13.682Z,0
2022-12-08T01:15:14.185Z,0
2022-12-08T01:16:14.073Z,0
2022-12-08T01:17:13.172Z,0
2022-12-08T01:18:14.611Z,0
2022-12-08T01:19:14.040Z,0
2022-12-08T01:20:13.618Z,0
2022-12-08T01:21:14.038Z,0
2022-12-08T01:22:13.926Z,0
2022-12-08T01:23:14.116Z,0
2022-12-08T01:24:13.920Z,0
2022-12-08T01:25:14.168Z,0
2022-12-08T01:26:13.790Z,0
2022-12-08T01:27:13.669Z,0
2022-12-08T01:28:13.798Z,0
2022-12-08T01:29:14.091Z,0
2022-12-08T01:30:13.671Z,0
2022-12-08T01:31:13.247Z,0
2022-12-08T01:32:13.811Z,0
2022-12-08T01:33:14.188Z,0
2022-12-08T01:34:13.316Z,0
2022-12-08T01:35:12.810Z,0
2022-12-08T01:36:13.568Z,0
2022-12-08T01:37:13.875Z,0
2022-12-08T01:38:13.720Z,0
2022-12-08T01:39:13.614Z,0
2022-12-08T01:40:13.300Z,0
2022-12-08T01:41:13.400Z,0
2022-12-08T01:42:12.721Z,0
2022-12-08T01:43:13.327Z,0
2022-12-08T01:44:12.831Z,0
2022-12-08T01:45:13.742Z,0
2022-12-08T01:46:13.572Z,0
2022-12-08T01:47:13.525Z,0
2022-12-08T01:48:13.343Z,0
2022-12-08T01:49:12.940Z,0
2022-12-08T01:50:13.027Z,0
2022-12-08T01:51:13.642Z,0
2022-12-08T01:52:13.018Z,0
2022-12-08T01:53:13.835Z,0
2022-12-08T01:54:13.380Z,0
2022-12-08T01:55:13.282Z,0
2022-12-08T01:56:12.708Z,0
2022-12-08T01:57:12.411Z,0
2022-12-08T01:58:13.286Z,0
2022-12-08T01:59:13.240Z,0
2022-12-08T02:00:14.488Z,0
2022-12-08T02:01:14.066Z,0
2022-12-08T02:02:14.605Z,0
2022-12-08T02:03:14.003Z,0
2022-12-08T02:04:14.152Z,0
2022-12-08T02:05:13.920Z,0
2022-12-08T02:06:14.227Z,0
2022-12-08T02:07:13.634Z,0
2022-12-08T02:08:13.867Z,0
2022-12-08T02:09:13.723Z,0
2022-12-08T02:10:14.725Z,0
2022-12-08T02:11:13.160Z,0
2022-12-08T02:12:13.472Z,0
2022-12-08T02:13:14.080Z,0
2022-12-08T02:14:13.027Z,0
2022-12-08T02:15:13.416Z,0
2022-12-08T02:16:13.534Z,0
2022-12-08T02:17:13.568Z,0
2022-12-08T02:18:13.457Z,0
2022-12-08T02:19:30.836Z,0
2022-12-08T02:20:13.979Z,0
2022-12-08T02:21:13.300Z,0
2022-12-08T02:22:13.924Z,0
2022-12-08T02:23:14.113Z,0.219
2022-12-08T02:24:13.661Z,0.219
2022-12-08T02:25:13.933Z,0.340
2022-12-08T02:26:13.966Z,0.109
2022-12-08T02:27:13.244Z,0.219
2022-12-08T02:28:13.368Z,0.680
2022-12-08T02:29:13.314Z,0.560
2022-12-08T02:30:14.120Z,0
2022-12-08T02:31:13.417Z,0.219
2022-12-08T02:32:13.683Z,0
2022-12-08T02:33:14.086Z,0
2022-12-08T02:34:13.359Z,0
2022-12-08T02:35:13.551Z,0
2022-12-08T02:36:14.098Z,0.449
2022-12-08T02:37:13.654Z,0.449
2022-12-08T02:38:13.611Z,0.680
2022-12-08T02:39:13.864Z,0.219
2022-12-08T02:40:13.154Z,0.449
2022-12-08T02:41:13.763Z,0.560
2022-12-08T02:42:14.749Z,0.219
2022-12-08T02:43:14.160Z,0.219
2022-12-08T02:44:13.163Z,0.449
2022-12-08T02:45:21.730Z,0.219
2022-12-08T02:46:13.221Z,0.449
2022-12-08T02:47:21.900Z,0.219
2022-12-08T02:48:13.366Z,0.109
2022-12-08T02:49:14.156Z,0.340
2022-12-08T02:50:13.491Z,0
2022-12-08T02:51:13.826Z,0.449
2022-12-08T02:52:13.998Z,0.340
2022-12-08T02:54:13.977Z,0.449
2022-12-08T02:55:13.825Z,0.340
2022-12-08T02:56:13.921Z,0.219
2022-12-08T02:57:13.777Z,0.219
2022-12-08T02:58:13.461Z,0.340
2022-12-08T02:59:13.367Z,0.219
2022-12-08T03:00:14.042Z,0.449
2022-12-08T03:01:13.617Z,0.340
2022-12-08T03:02:13.667Z,0.340
2022-12-08T03:03:32.747Z,0.560
2022-12-08T03:04:14.141Z,0.340
2022-12-08T03:05:14.137Z,0.449
2022-12-08T03:06:13.038Z,0.449
2022-12-08T03:07:13.153Z,0.340
2022-12-08T03:08:14.027Z,0.340
2022-12-08T03:09:13.487Z,0.239
2022-12-08T03:10:13.702Z,0.449
2022-12-08T03:11:14.111Z,0.449
2022-12-08T03:12:12.852Z,0.490
2022-12-08T03:13:13.319Z,0
2022-12-08T03:14:13.926Z,0.370
2022-12-08T03:15:14.301Z,0.790
2022-12-08T03:16:13.002Z,0.310
2022-12-08T03:17:13.439Z,0.370
2022-12-08T03:18:13.155Z,0.109
2022-12-08T03:19:13.627Z,0.200
2022-12-08T03:20:13.558Z,0.119
2022-12-08T03:21:13.590Z,0
2022-12-08T03:22:13.339Z,0
2022-12-08T03:23:13.607Z,0.340
2022-12-08T03:24:13.374Z,0
2022-12-08T03:25:13.437Z,0
2022-12-08T03:26:13.555Z,0.219
2022-12-08T03:27:13.983Z,0
2022-12-08T03:28:14.073Z,0.109
2022-12-08T03:29:13.582Z,0.340
2022-12-08T03:30:14.350Z,0.340
2022-12-08T03:31:13.860Z,0.340
2022-12-08T03:32:13.240Z,0.109
2022-12-08T03:33:13.498Z,0.219
2022-12-08T03:34:13.486Z,0.219
2022-12-08T03:35:13.960Z,0
2022-12-08T03:36:13.465Z,0.109
2022-12-08T03:37:12.946Z,0
2022-12-08T03:38:13.791Z,0.219
2022-12-08T03:39:12.642Z,0.219
2022-12-08T03:40:14.070Z,0.219
2022-12-08T03:41:13.102Z,0
2022-12-08T03:42:13.388Z,0.219
2022-12-08T03:43:13.567Z,0.340
2022-12-08T03:44:13.547Z,0.109
2022-12-08T03:45:13.682Z,0.219
2022-12-08T03:46:13.325Z,0.109
2022-12-08T03:47:13.273Z,0.560
2022-12-08T03:48:13.118Z,0.219
2022-12-08T03:49:13.051Z,0.340
2022-12-08T03:50:14.157Z,0.109
2022-12-08T03:51:13.299Z,0.790
2022-12-08T03:52:13.967Z,0.680
2022-12-08T03:53:13.240Z,0.449
2022-12-08T03:54:13.284Z,0.340
2022-12-08T03:55:13.916Z,0.109
2022-12-08T03:56:13.835Z,0.219
2022-12-08T03:57:13.753Z,0
2022-12-08T03:58:13.367Z,0
2022-12-08T03:59:12.904Z,0.340
2022-12-08T04:00:14.646Z,0.219
2022-12-08T04:01:14.380Z,0.219
2022-12-08T04:02:13.641Z,0.449
2022-12-08T04:03:14.201Z,0.340
2022-12-08T04:04:12.940Z,0.449
2022-12-08T04:05:14.258Z,0.560
2022-12-08T04:06:12.691Z,0.219
2022-12-08T04:07:13.472Z,0.340
2022-12-08T04:08:13.140Z,0.219
2022-12-08T04:09:14.120Z,0.219
2022-12-08T04:10:13.766Z,0.219
2022-12-08T04:11:13.200Z,0.560
2022-12-08T04:12:14.476Z,0.560
2022-12-08T04:13:13.622Z,0.219
2022-12-08T04:14:13.313Z,0.219
2022-12-08T04:15:13.878Z,0.449
2022-12-08T04:16:14.222Z,0.109
2022-12-08T04:17:13.065Z,0.449
2022-12-08T04:18:13.067Z,0.449
2022-12-08T04:19:12.962Z,0.449
2022-12-08T04:20:13.471Z,0.560
2022-12-08T04:21:14.039Z,0.449
2022-12-08T04:22:13.298Z,0.219
2022-12-08T04:23:13.742Z,0.219
2022-12-08T04:24:13.569Z,0.109
2022-12-08T04:25:12.674Z,0
2022-12-08T04:26:13.247Z,0.340
2022-12-08T04:27:14.411Z,0.219
2022-12-08T04:28:13.129Z,0.109
2022-12-08T04:29:13.273Z,0.109
2022-12-08T04:30:13.804Z,0.340
2022-12-08T04:31:13.718Z,0
2022-12-08T04:32:14.106Z,0.340
2022-12-08T04:33:13.257Z,0.340
2022-12-08T04:34:13.264Z,0.109
2022-12-08T04:35:12.859Z,0.119
2022-12-08T04:36:13.241Z,0.100
2022-12-08T04:37:13.235Z,0.109
2022-12-08T04:38:13.817Z,0
2022-12-08T04:39:14.106Z,0.200
2022-12-08T04:40:14.293Z,0.239
2022-12-08T04:41:14.019Z,0.340
2022-12-08T04:42:13.611Z,0.310
2022-12-08T04:43:13.979Z,0.370
2022-12-08T04:44:14.302Z,0.449
2022-12-08T04:45:14.247Z,0.449
2022-12-08T04:46:13.129Z,0.219
2022-12-08T04:47:14.433Z,0.219
2022-12-08T04:48:13.516Z,0.109
2022-12-08T04:49:13.348Z,0.109
2022-12-08T04:50:13.356Z,0.109
2022-12-08T04:51:13.655Z,0.219
2022-12-08T04:52:14.087Z,0.109
2022-12-08T04:53:14.313Z,0
2022-12-08T04:54:13.981Z,0.109
2022-12-08T04:55:13.263Z,0.109
2022-12-08T04:56:13.313Z,0
2022-12-08T04:57:13.920Z,0.219
2022-12-08T04:58:13.236Z,0.219
2022-12-08T04:59:13.436Z,0.109
2022-12-08T05:00:14.762Z,0.449
2022-12-08T05:01:14.111Z,0.340
2022-12-08T05:02:14.173Z,0.219
2022-12-08T05:03:13.681Z,0.340
2022-12-08T05:04:14.026Z,0
2022-12-08T05:05:13.528Z,0.109
2022-12-08T05:06:13.917Z,0.219
2022-12-08T05:07:13.719Z,0
2022-12-08T05:08:13.276Z,0.109
2022-12-08T05:09:13.940Z,0.219
2022-12-08T05:10:14.606Z,0.109
2022-12-08T05:11:13.696Z,0.219
2022-12-08T05:12:13.820Z,0.109
2022-12-08T05:13:13.523Z,0.109
2022-12-08T05:14:13.887Z,0.109
2022-12-08T05:15:14.303Z,0
2022-12-08T05:16:26.978Z,0
2022-12-08T05:17:14.096Z,0
2022-12-08T05:18:13.645Z,0.109
2022-12-08T05:19:14.132Z,0
2022-12-08T05:20:13.101Z,0
2022-12-08T05:21:13.564Z,0
2022-12-08T05:22:13.907Z,0
2022-12-08T05:23:14.131Z,0.219
2022-12-08T05:24:14.158Z,0.109
2022-12-08T05:25:13.531Z,0.109
2022-12-08T05:26:14.030Z,0.109
2022-12-08T05:27:14.076Z,0.109
2022-12-08T05:28:40.379Z,0.109
2022-12-08T05:29:13.404Z,0.219
2022-12-08T05:30:13.877Z,0.219
2022-12-08T05:31:14.427Z,0
2022-12-08T05:32:14.312Z,0
2022-12-08T05:33:13.839Z,0.219
2022-12-08T05:34:13.504Z,0.340
2022-12-08T05:35:14.226Z,0.340
2022-12-08T05:36:13.487Z,0.109
2022-12-08T05:37:14.067Z,0.219
2022-12-08T05:38:13.595Z,0.560
2022-12-08T05:39:14.274Z,0.219
2022-12-08T05:40:13.714Z,0.109
2022-12-08T05:41:14.185Z,0.449
2022-12-08T05:42:35.431Z,0.219
2022-12-08T05:43:13.529Z,0.449
2022-12-08T05:44:13.661Z,0.219
2022-12-08T05:45:14.219Z,0.219
2022-12-08T05:46:13.474Z,0.340
2022-12-08T05:47:13.669Z,0.340
2022-12-08T05:48:13.121Z,0.449
2022-12-08T05:49:14.272Z,0.219
2022-12-08T05:50:13.478Z,0.219
2022-12-08T05:51:14.186Z,0.219
2022-12-08T05:52:12.888Z,0.219
2022-12-08T05:53:13.126Z,0.340
2022-12-08T05:54:14.132Z,0.340
2022-12-08T05:55:13.675Z,0.219
2022-12-08T05:56:13.872Z,0
2022-12-08T05:57:13.070Z,0
2022-12-08T05:58:13.880Z,0.109
2022-12-08T06:00:15.270Z,0.239
2022-12-08T06:01:13.988Z,0
2022-12-08T06:02:14.609Z,0.239
2022-12-08T06:03:14.205Z,0.219
2022-12-08T06:04:13.695Z,0
2022-12-08T06:05:14.205Z,0.490
2022-12-08T06:06:13.511Z,0.219
2022-12-08T06:07:16.160Z,0.310
2022-12-08T06:08:13.084Z,0
2022-12-08T06:09:13.317Z,0.109
2022-12-08T06:10:13.660Z,0
2022-12-08T06:11:13.694Z,0.219
2022-12-08T06:12:13.638Z,0.109
2022-12-08T06:13:14.344Z,0
2022-12-08T06:14:13.559Z,0.109
2022-12-08T06:15:13.968Z,0.109
2022-12-08T06:16:13.909Z,0.109
2022-12-08T06:17:13.776Z,0.560
2022-12-08T06:18:13.710Z,0.449
2022-12-08T06:19:13.908Z,0.219
2022-12-08T06:20:13.955Z,0.449
2022-12-08T06:21:15.074Z,0.449
2022-12-08T06:22:13.522Z,0.340
2022-12-08T06:23:14.077Z,0.219
2022-12-08T06:24:12.483Z,0.219
2022-12-08T06:25:13.693Z,0.449
2022-12-08T06:26:13.670Z,0.680
2022-12-08T06:27:13.443Z,0.560
2022-12-08T06:28:13.175Z,0
2022-12-08T06:29:13.660Z,0
2022-12-08T06:30:13.643Z,0
2022-12-08T06:31:13.544Z,0
2022-12-08T06:32:13.487Z,0
2022-12-08T06:33:13.325Z,0
2022-12-08T06:34:13.028Z,0
2022-12-08T06:35:13.359Z,0
2022-12-08T06:36:13.407Z,0
2022-12-08T06:37:13.752Z,0
2022-12-08T06:38:13.415Z,0
2022-12-08T06:39:13.543Z,0
2022-12-08T06:40:13.606Z,0
2022-12-08T06:41:13.046Z,0
2022-12-08T06:42:12.984Z,0
2022-12-08T06:43:13.532Z,0
2022-12-08T06:44:13.174Z,0
2022-12-08T06:45:13.712Z,0
2022-12-08T06:46:13.859Z,0.050
2022-12-08T06:47:13.768Z,0.050
2022-12-08T06:48:13.246Z,0.170
2022-12-08T06:49:13.185Z,0.680
2022-12-08T06:50:13.430Z,0
2022-12-08T06:51:13.533Z,0.409
2022-12-08T06:52:13.508Z,0.819
2022-12-08T06:53:13.498Z,0.910
2022-12-08T06:54:13.467Z,1.090
2022-12-08T06:55:29.220Z,1.960
2022-12-08T06:56:14.261Z,1.929
2022-12-08T06:57:13.738Z,2.390
2022-12-08T06:58:13.844Z,3.200
2022-12-08T06:59:13.335Z,2.990
2022-12-08T07:00:14.562Z,4.179
2022-12-08T07:01:14.226Z,4.489
2022-12-08T07:02:13.690Z,5.579
2022-12-08T07:03:13.928Z,6.019
2022-12-08T07:04:12.831Z,7.25
2022-12-08T07:05:14.466Z,8.010
2022-12-08T07:06:13.042Z,9.050
2022-12-08T07:07:13.995Z,10.36
2022-12-08T07:08:13.793Z,11.80
2022-12-08T07:09:13.158Z,13.30
2022-12-08T07:10:13.675Z,15.5
2022-12-08T07:11:19.691Z,17.73
2022-12-08T07:12:13.188Z,19.89
2022-12-08T07:13:14.304Z,21.93
2022-12-08T07:14:13.375Z,22.42
2022-12-08T07:15:13.418Z,22.80
2022-12-08T07:16:13.923Z,22.61
2022-12-08T07:17:12.943Z,24.35
2022-12-08T07:18:13.314Z,26.10
2022-12-08T07:19:13.670Z,29.87
2022-12-08T07:20:14.425Z,34
2022-12-08T07:21:19.002Z,38.70
2022-12-08T07:22:13.529Z,39.90
2022-12-08T07:23:14.520Z,38.88
2022-12-08T07:24:14.032Z,39.29
2022-12-08T07:25:13.798Z,38.90
2022-12-08T07:26:13.667Z,38.90
2022-12-08T07:27:18.458Z,45.5
2022-12-08T07:28:13.289Z,57
2022-12-08T07:29:13.303Z,66.30
2022-12-08T07:30:14.382Z,74
2022-12-08T07:31:14.484Z,88
2022-12-08T07:32:14.159Z,91.69
2022-12-08T07:33:13.694Z,95.09
2022-12-08T07:34:14.390Z,106
2022-12-08T07:35:13.494Z,126
2022-12-08T07:36:13.433Z,140
2022-12-08T07:37:13.888Z,151.1
2022-12-08T07:38:14.289Z,160
2022-12-08T07:39:13.690Z,167.8
2022-12-08T07:40:14.549Z,163.6
2022-12-08T07:41:13.819Z,165.6
2022-12-08T07:42:14.117Z,181
2022-12-08T07:43:13.427Z,207
2022-12-08T07:44:13.870Z,225.8
2022-12-08T07:45:13.932Z,220
2022-12-08T07:46:13.606Z,212.4
2022-12-08T07:47:14.166Z,213.8
2022-12-08T07:48:13.285Z,224.6
2022-12-08T07:49:13.289Z,231
2022-12-08T07:50:13.849Z,241.1
2022-12-08T07:51:13.525Z,237.6
2022-12-08T07:52:13.708Z,236.7
2022-12-08T07:53:13.899Z,237
2022-12-08T07:54:14.098Z,257
2022-12-08T07:55:13.445Z,274
2022-12-08T07:56:13.913Z,293
2022-12-08T07:57:14.365Z,321
2022-12-08T07:58:13.751Z,343
2022-12-08T07:59:13.469Z,358
2022-12-08T08:00:14.480Z,354
2022-12-08T08:01:14.421Z,349.8
2022-12-08T08:02:24.191Z,356.3
2022-12-08T08:03:13.526Z,369
2022-12-08T08:04:14.367Z,386
2022-12-08T08:05:14.472Z,402
2022-12-08T08:06:13.496Z,414
2022-12-08T08:07:13.947Z,418
2022-12-08T08:08:14.189Z,450
2022-12-08T08:09:14.346Z,500
2022-12-08T08:10:14.556Z,537
2022-12-08T08:11:20.929Z,560
2022-12-08T08:12:30.881Z,650
2022-12-08T08:13:14.256Z,710
2022-12-08T08:14:13.312Z,750
2022-12-08T08:15:14.648Z,820
2022-12-08T08:16:14.001Z,865
2022-12-08T08:17:13.842Z,900
2022-12-08T08:18:13.231Z,940
2022-12-08T08:19:13.507Z,980
2022-12-08T08:20:14.000Z,1020
2022-12-08T08:21:43.820Z,1070
2022-12-08T08:22:13.575Z,1110
2022-12-08T08:23:13.635Z,1137
2022-12-08T08:24:13.343Z,1120
2022-12-08T08:25:13.516Z,1070
2022-12-08T08:26:13.324Z,1027
2022-12-08T08:27:13.992Z,1057
2022-12-08T08:28:13.743Z,1090
2022-12-08T08:29:13.678Z,1140
2022-12-08T08:30:18.360Z,1144
2022-12-08T08:31:13.370Z,1131
2022-12-08T08:32:13.556Z,1124
2022-12-08T08:33:14.252Z,1129.
2022-12-08T08:34:13.439Z,1137
2022-12-08T08:35:13.754Z,1144.
2022-12-08T08:36:13.480Z,1147.
2022-12-08T08:37:13.784Z,1157
2022-12-08T08:38:13.778Z,1167
2022-12-08T08:39:14.509Z,1194
2022-12-08T08:40:14.070Z,1220
2022-12-08T08:41:14.005Z,1280
2022-12-08T08:42:13.625Z,1340
2022-12-08T08:43:13.708Z,1400
2022-12-08T08:44:13.778Z,1470
2022-12-08T08:45:14.058Z,1540
2022-12-08T08:46:13.748Z,1583
2022-12-08T08:47:13.919Z,1610
2022-12-08T08:48:13.767Z,1607
2022-12-08T08:49:13.580Z,1585
2022-12-08T08:50:14.032Z,1590
2022-12-08T08:51:13.993Z,1680
2022-12-08T08:52:13.855Z,1730
2022-12-08T08:53:13.797Z,1700
2022-12-08T08:54:13.798Z,1600
2022-12-08T08:55:13.360Z,1800
2022-12-08T08:56:13.427Z,1900
2022-12-08T08:57:13.385Z,1900
2022-12-08T08:58:13.096Z,2100
2022-12-08T08:59:14.016Z,2200
2022-12-08T09:00:13.991Z,2500
2022-12-08T09:01:13.530Z,2700
2022-12-08T09:02:14.142Z,3000
2022-12-08T09:03:13.923Z,3200
2022-12-08T09:04:13.812Z,3400
2022-12-08T09:05:13.750Z,3600
2022-12-08T09:06:13.832Z,3800
2022-12-08T09:07:14.121Z,4100
2022-12-08T09:08:14.382Z,4200
2022-12-08T09:09:13.502Z,4300
2022-12-08T09:10:14.071Z,4360
2022-12-08T09:11:13.141Z,4400
2022-12-08T09:12:13.827Z,4450
2022-12-08T09:13:14.030Z,4500
2022-12-08T09:14:13.466Z,4400
2022-12-08T09:15:13.962Z,4100
2022-12-08T09:16:13.673Z,3000
2022-12-08T09:17:14.436Z,3000
2022-12-08T09:18:13.717Z,3100
2022-12-08T09:19:13.576Z,2900
2022-12-08T09:20:14.191Z,2700
2022-12-08T09:21:13.936Z,2480
2022-12-08T09:22:13.892Z,2430
2022-12-08T09:23:13.415Z,2410
2022-12-08T09:24:13.409Z,2452
2022-12-08T09:25:13.379Z,2431
2022-12-08T09:26:13.347Z,2390
2022-12-08T09:27:13.361Z,2350
2022-12-08T09:28:13.633Z,2290
2022-12-08T09:29:13.857Z,2247.
2022-12-08T09:30:14.825Z,2210
2022-12-08T09:31:13.932Z,2179
2022-12-08T09:32:13.295Z,2154
2022-12-08T09:33:13.821Z,2175
2022-12-08T09:34:13.395Z,2150
2022-12-08T09:35:13.968Z,2090
2022-12-08T09:36:13.483Z,2020
2022-12-08T09:37:13.354Z,1950
2022-12-08T09:38:13.687Z,1880
2022-12-08T09:39:13.845Z,1852
2022-12-08T09:40:13.782Z,1844
2022-12-08T09:41:14.032Z,1867
2022-12-08T09:42:13.160Z,1890
2022-12-08T09:43:13.346Z,1940
2022-12-08T09:44:13.018Z,2000
2022-12-08T09:45:14.396Z,2070
2022-12-08T09:46:13.859Z,2100
2022-12-08T09:47:13.725Z,2300
2022-12-08T09:48:13.966Z,2400
2022-12-08T09:49:13.959Z,2600
2022-12-08T09:50:13.851Z,2700
2022-12-08T09:51:13.539Z,2900
2022-12-08T09:52:19.133Z,2990
2022-12-08T09:53:14.335Z,2997
2022-12-08T09:54:13.927Z,2950
2022-12-08T09:55:13.145Z,2870
2022-12-08T09:56:13.688Z,2780
2022-12-08T09:57:13.168Z,2710
2022-12-08T09:58:13.542Z,2660
2022-12-08T09:59:13.994Z,2647.
2022-12-08T10:00:20.535Z,2643.
2022-12-08T10:01:13.721Z,2626
2022-12-08T10:02:13.672Z,2580
2022-12-08T10:03:16.723Z,2530
2022-12-08T10:04:13.224Z,2492
2022-12-08T10:05:13.977Z,2475
2022-12-08T10:06:27.242Z,2464
2022-12-08T10:07:12.740Z,2457
2022-12-08T10:08:13.594Z,2467.
2022-12-08T10:09:18.319Z,2460
2022-12-08T10:10:28.109Z,2443
2022-12-08T10:11:13.726Z,2400
2022-12-08T10:12:13.927Z,2350
2022-12-08T10:13:14.360Z,2300
2022-12-08T10:14:13.874Z,2280
2022-12-08T10:15:13.291Z,2269.
2022-12-08T10:16:17.599Z,2277.
2022-12-08T10:17:13.925Z,2287.
2022-12-08T10:18:13.537Z,2302
2022-12-08T10:19:14.038Z,2330
2022-12-08T10:20:13.444Z,2390
2022-12-08T10:21:14.592Z,2490
2022-12-08T10:22:15.164Z,2540
2022-12-08T10:23:14.315Z,2590
2022-12-08T10:24:13.714Z,2670
2022-12-08T10:25:13.881Z,2700
2022-12-08T10:26:12.914Z,2900
2022-12-08T10:27:13.433Z,3000
2022-12-08T10:28:13.506Z,3000
2022-12-08T10:29:14.314Z,4000
2022-12-08T10:30:14.529Z,4000
2022-12-08T10:31:14.441Z,4000
2022-12-08T10:32:14.360Z,5200
2022-12-08T10:33:14.748Z,5400
2022-12-08T10:34:14.102Z,5000
2022-12-08T10:35:14.633Z,5900
2022-12-08T10:36:14.528Z,6100
2022-12-08T10:37:14.331Z,6300
2022-12-08T10:38:13.889Z,6700
2022-12-08T10:39:13.688Z,6900
2022-12-08T10:40:13.659Z,7000
2022-12-08T10:41:14.251Z,7200
2022-12-08T10:42:13.731Z,7500
2022-12-08T10:43:13.894Z,7000
2022-12-08T10:44:13.084Z,8000
2022-12-08T10:45:12.962Z,7980
2022-12-08T10:47:13.735Z,8200
2022-12-08T10:48:13.503Z,8000
2022-12-08T10:49:13.612Z,8000
2022-12-08T10:50:13.980Z,9100
2022-12-08T10:51:14.048Z,9200
2022-12-08T10:52:13.679Z,9000
2022-12-08T10:53:13.740Z,9900
2022-12-08T10:54:17.707Z,9700
2022-12-08T10:55:14.333Z,9700
2022-12-08T10:56:14.465Z,10000
2022-12-08T10:57:14.673Z,9700
2022-12-08T10:58:13.677Z,9800
2022-12-08T10:59:13.769Z,9000
2022-12-08T11:00:15.105Z,9440
2022-12-08T11:01:13.947Z,9400
2022-12-08T11:02:14.183Z,9320
2022-12-08T11:03:13.808Z,9000
2022-12-08T11:04:13.932Z,8900
2022-12-08T11:05:13.763Z,8700
2022-12-08T11:06:13.657Z,8600
2022-12-08T11:07:13.928Z,8500
2022-12-08T11:08:13.878Z,8400
2022-12-08T11:09:14.115Z,8320
2022-12-08T11:10:13.362Z,8290
2022-12-08T11:11:13.845Z,8240
2022-12-08T11:12:14.453Z,8210
2022-12-08T11:13:14.226Z,8170
2022-12-08T11:14:14.165Z,8270
2022-12-08T11:15:14.151Z,8400
2022-12-08T11:16:13.913Z,8700
2022-12-08T11:17:14.061Z,8900
2022-12-08T11:18:13.486Z,9100
2022-12-08T11:19:13.677Z,9000
2022-12-08T11:20:13.787Z,8900
2022-12-08T11:21:13.269Z,8900
2022-12-08T11:22:13.912Z,8000
2022-12-08T11:23:13.771Z,8000
2022-12-08T11:24:14.488Z,7900
2022-12-08T11:25:14.046Z,7800
2022-12-08T11:26:13.660Z,7800
2022-12-08T11:27:13.399Z,7000
2022-12-08T11:28:14.486Z,6000
2022-12-08T11:29:13.852Z,5800
2022-12-08T11:30:14.786Z,0
2022-12-08T11:31:13.172Z,0
2022-12-08T11:32:14.219Z,0
2022-12-08T11:33:14.135Z,5000
2022-12-08T11:34:13.430Z,0
2022-12-08T11:35:14.194Z,7900
2022-12-08T11:36:13.745Z,7000
2022-12-08T11:37:13.742Z,6700
2022-12-08T11:38:21.706Z,6000
2022-12-08T11:39:13.862Z,6000
2022-12-08T11:40:14.786Z,5000
2022-12-08T11:41:16.448Z,5400
2022-12-08T11:42:14.273Z,5300
2022-12-08T11:43:13.907Z,5100
2022-12-08T11:44:13.999Z,5060
2022-12-08T11:45:14.397Z,4900
2022-12-08T11:46:14.295Z,4750
2022-12-08T11:47:14.490Z,4680
2022-12-08T11:48:14.429Z,4000
2022-12-08T11:49:14.391Z,4000
2022-12-08T11:50:18.270Z,3000
2022-12-08T11:51:14.280Z,3400
2022-12-08T11:52:14.001Z,3200
2022-12-08T11:53:14.153Z,3300
2022-12-08T11:54:13.694Z,3000
2022-12-08T11:55:14.056Z,4000
2022-12-08T11:56:13.918Z,4120
2022-12-08T11:57:13.456Z,4100
2022-12-08T11:58:14.097Z,4000
2022-12-08T11:59:13.467Z,4600
2022-12-08T12:00:15.410Z,4790
2022-12-08T12:01:14.646Z,4600
2022-12-08T12:02:14.416Z,4000
2022-12-08T12:03:14.354Z,4100
2022-12-08T12:04:13.934Z,4000
2022-12-08T12:05:13.251Z,4000
2022-12-08T12:06:30.779Z,3800
2022-12-08T12:07:13.166Z,3728
2022-12-08T12:08:13.705Z,3800
2022-12-08T12:09:18.412Z,3900
2022-12-08T12:10:13.987Z,4000
2022-12-08T12:11:19.239Z,4000
2022-12-08T12:12:14.482Z,5100
2022-12-08T12:13:18.848Z,5000
2022-12-08T12:14:13.021Z,5800
2022-12-08T12:15:14.476Z,5883
2022-12-08T12:16:13.195Z,5700
2022-12-08T12:17:19.028Z,5500
2022-12-08T12:18:17.009Z,5200
2022-12-08T12:19:13.938Z,4900
2022-12-08T12:20:13.638Z,4870
2022-12-08T12:21:14.732Z,4910
2022-12-08T12:22:13.644Z,4900
2022-12-08T12:23:22.257Z,5050
2022-12-08T12:24:13.537Z,4900
2022-12-08T12:25:14.277Z,4860
2022-12-08T12:26:14.172Z,4900
2022-12-08T12:27:14.263Z,4960
2022-12-08T12:28:13.539Z,4800
2022-12-08T12:29:13.731Z,4500
2022-12-08T12:30:14.189Z,4300
2022-12-08T12:31:27.579Z,4270
2022-12-08T12:32:13.820Z,4100
2022-12-08T12:33:13.190Z,4000
2022-12-08T12:34:13.760Z,3800
2022-12-08T12:35:13.493Z,3700
2022-12-08T12:36:13.523Z,3400
2022-12-08T12:37:13.858Z,3200
2022-12-08T12:38:13.166Z,3000
2022-12-08T12:39:14.112Z,2800
2022-12-08T12:40:14.309Z,2600
2022-12-08T12:41:13.680Z,2400
2022-12-08T12:42:14.241Z,2200
2022-12-08T12:43:13.392Z,2000
2022-12-08T12:44:13.862Z,1900
2022-12-08T12:45:32.638Z,1800
2022-12-08T12:46:13.810Z,1690
2022-12-08T12:47:13.788Z,1620
2022-12-08T12:48:13.793Z,1570
2022-12-08T12:49:13.967Z,1530
2022-12-08T12:50:13.159Z,1470
2022-12-08T12:51:13.405Z,1410
2022-12-08T12:52:13.332Z,1350
2022-12-08T12:53:14.017Z,1300
2022-12-08T12:54:13.416Z,1271
2022-12-08T12:55:14.076Z,1252
2022-12-08T12:56:13.830Z,1245.
2022-12-08T12:57:13.624Z,1234
2022-12-08T12:58:13.240Z,1213
2022-12-08T12:59:13.954Z,1186
2022-12-08T13:00:15.381Z,1165
2022-12-08T13:01:14.069Z,1150
2022-12-08T13:02:13.867Z,1110
2022-12-08T13:03:14.534Z,1060
2022-12-08T13:04:13.708Z,1010
2022-12-08T13:05:14.032Z,997.2
2022-12-08T13:06:14.916Z,1000.
2022-12-08T13:07:13.505Z,1017
2022-12-08T13:08:13.634Z,1050
2022-12-08T13:09:14.167Z,1090
2022-12-08T13:10:14.209Z,1141
2022-12-08T13:11:13.397Z,1170
2022-12-08T13:12:13.474Z,1200
2022-12-08T13:13:14.086Z,1230.
2022-12-08T13:14:13.504Z,1230.
2022-12-08T13:15:14.582Z,1230.
2022-12-08T13:16:19.239Z,1243
2022-12-08T13:17:13.706Z,1270
2022-12-08T13:18:13.335Z,1330
2022-12-08T13:19:13.597Z,1400
2022-12-08T13:20:14.558Z,1500
2022-12-08T13:21:14.084Z,1700
2022-12-08T13:22:14.160Z,1800
2022-12-08T13:23:13.912Z,1900
2022-12-08T13:24:13.739Z,2100
2022-12-08T13:25:13.893Z,2200
2022-12-08T13:26:13.397Z,2400
2022-12-08T13:27:14.265Z,2500
2022-12-08T13:28:14.220Z,2643
2022-12-08T13:29:13.734Z,2610
2022-12-08T13:30:13.550Z,2500
2022-12-08T13:31:14.047Z,2300
2022-12-08T13:32:13.136Z,2270
2022-12-08T13:33:18.991Z,2190
2022-12-08T13:34:13.444Z,2110
2022-12-08T13:35:13.819Z,2000
2022-12-08T13:36:13.836Z,1800